sensor_id;sensor_type;location;lat;lon;timestamp;P1;durP1;ratioP1;P2;durP2;ratioP2
84883;SDS011;75145;49.188;8.122;2024-03-08T00:01:52;24.42;;;12.60;;
84883;SDS011;75145;49.188;8.122;2024-03-08T00:04:18;24.75;;;13.02;;
84883;SDS011;75145;49.188;8.122;2024-03-08T00:06:43;26.45;;;13.55;;
84883;SDS011;75145;49.188;8.122;2024-03-08T00:09:11;21.92;;;12.30;;
84883;SDS011;75145;49.188;8.122;2024-03-08T00:11:37;24.35;;;13.90;;
84883;SDS011;75145;49.188;8.122;2024-03-08T00:14:02;24.27;;;12.90;;
84883;SDS011;75145;49.188;8.122;2024-03-08T00:16:27;23.83;;;14.30;;
84883;SDS011;75145;49.188;8.122;2024-03-08T00:18:53;28.03;;;12.97;;
84883;SDS011;75145;49.188;8.122;2024-03-08T00:21:18;24.97;;;12.87;;
84883;SDS011;75145;49.188;8.122;2024-03-08T00:23:43;25.10;;;12.80;;
84883;SDS011;75145;49.188;8.122;2024-03-08T00:26:09;26.80;;;13.20;;
84883;SDS011;75145;49.188;8.122;2024-03-08T00:28:34;25.50;;;12.60;;
84883;SDS011;75145;49.188;8.122;2024-03-08T00:31:00;24.85;;;13.65;;
84883;SDS011;75145;49.188;8.122;2024-03-08T00:33:26;24.13;;;13.70;;
84883;SDS011;75145;49.188;8.122;2024-03-08T00:35:52;26.40;;;13.73;;
84883;SDS011;75145;49.188;8.122;2024-03-08T00:38:18;27.05;;;13.63;;
84883;SDS011;75145;49.188;8.122;2024-03-08T00:40:44;25.30;;;13.35;;
84883;SDS011;75145;49.188;8.122;2024-03-08T00:43:09;29.48;;;14.30;;
84883;SDS011;75145;49.188;8.122;2024-03-08T00:45:34;24.80;;;12.70;;
84883;SDS011;75145;49.188;8.122;2024-03-08T00:48:00;26.30;;;12.32;;
84883;SDS011;75145;49.188;8.122;2024-03-08T00:50:26;24.85;;;12.80;;
84883;SDS011;75145;49.188;8.122;2024-03-08T00:52:51;24.80;;;12.10;;
84883;SDS011;75145;49.188;8.122;2024-03-08T00:55:16;24.47;;;12.57;;
84883;SDS011;75145;49.188;8.122;2024-03-08T00:57:42;23.17;;;12.75;;
84883;SDS011;75145;49.188;8.122;2024-03-08T01:00:07;25.20;;;12.53;;
84883;SDS011;75145;49.188;8.122;2024-03-08T01:02:36;24.38;;;12.43;;
84883;SDS011;75145;49.188;8.122;2024-03-08T01:05:02;26.55;;;13.32;;
84883;SDS011;75145;49.188;8.122;2024-03-08T01:07:30;22.80;;;13.02;;
84883;SDS011;75145;49.188;8.122;2024-03-08T01:09:56;24.23;;;13.47;;
84883;SDS011;75145;49.188;8.122;2024-03-08T01:12:22;25.83;;;12.95;;
84883;SDS011;75145;49.188;8.122;2024-03-08T01:14:47;23.05;;;12.93;;
84883;SDS011;75145;49.188;8.122;2024-03-08T01:17:13;27.48;;;13.63;;
84883;SDS011;75145;49.188;8.122;2024-03-08T01:19:38;24.85;;;12.93;;
84883;SDS011;75145;49.188;8.122;2024-03-08T01:22:03;27.23;;;14.53;;
84883;SDS011;75145;49.188;8.122;2024-03-08T01:24:29;24.20;;;12.93;;
84883;SDS011;75145;49.188;8.122;2024-03-08T01:26:54;24.60;;;12.98;;
84883;SDS011;75145;49.188;8.122;2024-03-08T01:29:20;26.03;;;13.33;;
84883;SDS011;75145;49.188;8.122;2024-03-08T01:31:45;27.27;;;13.30;;
84883;SDS011;75145;49.188;8.122;2024-03-08T01:34:10;27.90;;;13.60;;
84883;SDS011;75145;49.188;8.122;2024-03-08T01:36:36;22.98;;;14.23;;
84883;SDS011;75145;49.188;8.122;2024-03-08T01:39:02;30.15;;;12.52;;
84883;SDS011;75145;49.188;8.122;2024-03-08T01:41:32;29.98;;;13.38;;
84883;SDS011;75145;49.188;8.122;2024-03-08T01:43:58;24.83;;;13.20;;
84883;SDS011;75145;49.188;8.122;2024-03-08T01:46:24;25.40;;;12.57;;
84883;SDS011;75145;49.188;8.122;2024-03-08T01:48:49;27.30;;;13.40;;
84883;SDS011;75145;49.188;8.122;2024-03-08T01:51:15;24.38;;;13.13;;
84883;SDS011;75145;49.188;8.122;2024-03-08T01:53:42;25.40;;;13.30;;
84883;SDS011;75145;49.188;8.122;2024-03-08T01:56:10;24.13;;;12.00;;
84883;SDS011;75145;49.188;8.122;2024-03-08T01:58:38;29.35;;;13.85;;
84883;SDS011;75145;49.188;8.122;2024-03-08T02:01:07;28.92;;;12.85;;
84883;SDS011;75145;49.188;8.122;2024-03-08T02:03:34;23.38;;;11.57;;
84883;SDS011;75145;49.188;8.122;2024-03-08T02:05:59;21.23;;;12.33;;
84883;SDS011;75145;49.188;8.122;2024-03-08T02:08:24;25.67;;;12.68;;
84883;SDS011;75145;49.188;8.122;2024-03-08T02:10:50;28.77;;;13.48;;
84883;SDS011;75145;49.188;8.122;2024-03-08T02:13:16;26.15;;;12.65;;
84883;SDS011;75145;49.188;8.122;2024-03-08T02:15:51;28.63;;;12.80;;
84883;SDS011;75145;49.188;8.122;2024-03-08T02:18:16;27.27;;;13.45;;
84883;SDS011;75145;49.188;8.122;2024-03-08T02:20:42;29.92;;;13.55;;
84883;SDS011;75145;49.188;8.122;2024-03-08T02:23:08;25.98;;;14.05;;
84883;SDS011;75145;49.188;8.122;2024-03-08T02:25:34;28.65;;;14.75;;
84883;SDS011;75145;49.188;8.122;2024-03-08T02:28:00;28.35;;;13.88;;
84883;SDS011;75145;49.188;8.122;2024-03-08T02:30:25;31.37;;;14.53;;
84883;SDS011;75145;49.188;8.122;2024-03-08T02:32:55;27.75;;;14.80;;
84883;SDS011;75145;49.188;8.122;2024-03-08T02:35:20;28.50;;;14.48;;
84883;SDS011;75145;49.188;8.122;2024-03-08T02:37:46;29.95;;;14.50;;
84883;SDS011;75145;49.188;8.122;2024-03-08T02:40:12;27.95;;;13.27;;
84883;SDS011;75145;49.188;8.122;2024-03-08T02:42:38;25.73;;;13.57;;
84883;SDS011;75145;49.188;8.122;2024-03-08T02:45:03;33.30;;;14.43;;
84883;SDS011;75145;49.188;8.122;2024-03-08T02:47:30;27.92;;;13.90;;
84883;SDS011;75145;49.188;8.122;2024-03-08T02:49:56;30.25;;;14.63;;
84883;SDS011;75145;49.188;8.122;2024-03-08T02:52:21;27.92;;;13.80;;
84883;SDS011;75145;49.188;8.122;2024-03-08T02:54:47;32.37;;;14.77;;
84883;SDS011;75145;49.188;8.122;2024-03-08T02:57:13;26.80;;;13.98;;
84883;SDS011;75145;49.188;8.122;2024-03-08T02:59:39;28.55;;;14.43;;
84883;SDS011;75145;49.188;8.122;2024-03-08T03:02:05;25.60;;;12.95;;
84883;SDS011;75145;49.188;8.122;2024-03-08T03:04:31;28.75;;;14.57;;
84883;SDS011;75145;49.188;8.122;2024-03-08T03:06:59;26.80;;;14.18;;
84883;SDS011;75145;49.188;8.122;2024-03-08T03:09:25;28.00;;;13.88;;
84883;SDS011;75145;49.188;8.122;2024-03-08T03:11:52;29.92;;;14.38;;
84883;SDS011;75145;49.188;8.122;2024-03-08T03:14:18;28.65;;;15.10;;
84883;SDS011;75145;49.188;8.122;2024-03-08T03:16:44;27.33;;;13.32;;
84883;SDS011;75145;49.188;8.122;2024-03-08T03:19:10;28.00;;;13.82;;
84883;SDS011;75145;49.188;8.122;2024-03-08T03:21:36;28.27;;;14.27;;
84883;SDS011;75145;49.188;8.122;2024-03-08T03:24:03;27.52;;;14.07;;
84883;SDS011;75145;49.188;8.122;2024-03-08T03:26:29;24.60;;;13.93;;
84883;SDS011;75145;49.188;8.122;2024-03-08T03:28:56;25.85;;;13.55;;
84883;SDS011;75145;49.188;8.122;2024-03-08T03:31:22;30.00;;;14.27;;
84883;SDS011;75145;49.188;8.122;2024-03-08T03:33:49;25.33;;;12.65;;
84883;SDS011;75145;49.188;8.122;2024-03-08T03:36:16;24.13;;;12.73;;
84883;SDS011;75145;49.188;8.122;2024-03-08T03:39:58;25.85;;;13.13;;
84883;SDS011;75145;49.188;8.122;2024-03-08T03:42:24;31.65;;;13.57;;
84883;SDS011;75145;49.188;8.122;2024-03-08T03:44:51;29.52;;;14.00;;
84883;SDS011;75145;49.188;8.122;2024-03-08T03:47:17;23.10;;;11.93;;
84883;SDS011;75145;49.188;8.122;2024-03-08T03:49:42;24.67;;;12.77;;
84883;SDS011;75145;49.188;8.122;2024-03-08T03:52:08;25.93;;;13.13;;
84883;SDS011;75145;49.188;8.122;2024-03-08T03:54:33;32.47;;;13.75;;
84883;SDS011;75145;49.188;8.122;2024-03-08T03:56:59;29.02;;;13.43;;
84883;SDS011;75145;49.188;8.122;2024-03-08T03:59:25;30.33;;;14.30;;
84883;SDS011;75145;49.188;8.122;2024-03-08T04:01:51;33.42;;;14.68;;
84883;SDS011;75145;49.188;8.122;2024-03-08T04:04:16;26.67;;;13.80;;
84883;SDS011;75145;49.188;8.122;2024-03-08T04:06:41;28.50;;;13.27;;
84883;SDS011;75145;49.188;8.122;2024-03-08T04:09:07;30.73;;;13.35;;
84883;SDS011;75145;49.188;8.122;2024-03-08T04:11:32;29.10;;;12.80;;
84883;SDS011;75145;49.188;8.122;2024-03-08T04:13:58;27.63;;;13.23;;
84883;SDS011;75145;49.188;8.122;2024-03-08T04:16:23;22.43;;;11.67;;
84883;SDS011;75145;49.188;8.122;2024-03-08T04:18:49;30.25;;;13.82;;
84883;SDS011;75145;49.188;8.122;2024-03-08T04:21:14;29.03;;;14.30;;
84883;SDS011;75145;49.188;8.122;2024-03-08T04:23:40;29.92;;;13.00;;
84883;SDS011;75145;49.188;8.122;2024-03-08T04:26:05;23.77;;;12.40;;
84883;SDS011;75145;49.188;8.122;2024-03-08T04:28:32;28.60;;;12.70;;
84883;SDS011;75145;49.188;8.122;2024-03-08T04:30:57;27.70;;;12.68;;
84883;SDS011;75145;49.188;8.122;2024-03-08T04:33:25;28.33;;;14.13;;
84883;SDS011;75145;49.188;8.122;2024-03-08T04:35:50;23.97;;;12.03;;
84883;SDS011;75145;49.188;8.122;2024-03-08T04:38:16;27.50;;;13.23;;
84883;SDS011;75145;49.188;8.122;2024-03-08T04:40:41;26.67;;;11.77;;
84883;SDS011;75145;49.188;8.122;2024-03-08T04:43:07;27.55;;;13.48;;
84883;SDS011;75145;49.188;8.122;2024-03-08T04:45:33;27.63;;;12.63;;
84883;SDS011;75145;49.188;8.122;2024-03-08T04:47:59;25.92;;;12.68;;
84883;SDS011;75145;49.188;8.122;2024-03-08T04:50:24;30.17;;;13.60;;
84883;SDS011;75145;49.188;8.122;2024-03-08T04:52:49;27.67;;;13.77;;
84883;SDS011;75145;49.188;8.122;2024-03-08T04:55:15;27.47;;;13.67;;
84883;SDS011;75145;49.188;8.122;2024-03-08T04:57:40;28.60;;;13.37;;
84883;SDS011;75145;49.188;8.122;2024-03-08T05:00:07;22.35;;;11.57;;
84883;SDS011;75145;49.188;8.122;2024-03-08T05:02:36;25.55;;;12.25;;
84883;SDS011;75145;49.188;8.122;2024-03-08T05:05:05;30.50;;;13.50;;
84883;SDS011;75145;49.188;8.122;2024-03-08T05:07:37;25.70;;;13.35;;
84883;SDS011;75145;49.188;8.122;2024-03-08T05:10:04;32.08;;;12.90;;
84883;SDS011;75145;49.188;8.122;2024-03-08T05:12:30;24.35;;;12.77;;
84883;SDS011;75145;49.188;8.122;2024-03-08T05:14:55;24.47;;;12.57;;
84883;SDS011;75145;49.188;8.122;2024-03-08T05:17:20;26.53;;;13.07;;
84883;SDS011;75145;49.188;8.122;2024-03-08T05:19:46;26.13;;;12.93;;
84883;SDS011;75145;49.188;8.122;2024-03-08T05:22:11;27.03;;;14.10;;
84883;SDS011;75145;49.188;8.122;2024-03-08T05:24:37;27.50;;;12.05;;
84883;SDS011;75145;49.188;8.122;2024-03-08T05:27:02;27.87;;;13.07;;
84883;SDS011;75145;49.188;8.122;2024-03-08T05:29:28;28.17;;;13.48;;
84883;SDS011;75145;49.188;8.122;2024-03-08T05:31:54;29.92;;;13.63;;
84883;SDS011;75145;49.188;8.122;2024-03-08T05:34:20;29.50;;;12.95;;
84883;SDS011;75145;49.188;8.122;2024-03-08T05:36:46;24.08;;;12.10;;
84883;SDS011;75145;49.188;8.122;2024-03-08T05:39:14;27.38;;;12.98;;
84883;SDS011;75145;49.188;8.122;2024-03-08T05:41:40;30.10;;;13.25;;
84883;SDS011;75145;49.188;8.122;2024-03-08T05:44:06;28.27;;;12.75;;
84883;SDS011;75145;49.188;8.122;2024-03-08T05:46:32;25.58;;;13.23;;
84883;SDS011;75145;49.188;8.122;2024-03-08T05:48:58;31.10;;;12.65;;
84883;SDS011;75145;49.188;8.122;2024-03-08T05:51:30;29.13;;;12.85;;
84883;SDS011;75145;49.188;8.122;2024-03-08T05:53:55;26.20;;;13.00;;
84883;SDS011;75145;49.188;8.122;2024-03-08T05:56:21;28.40;;;13.25;;
84883;SDS011;75145;49.188;8.122;2024-03-08T05:58:48;32.10;;;14.48;;
84883;SDS011;75145;49.188;8.122;2024-03-08T06:01:15;25.33;;;13.00;;
84883;SDS011;75145;49.188;8.122;2024-03-08T06:03:40;25.30;;;12.50;;
84883;SDS011;75145;49.188;8.122;2024-03-08T06:06:11;27.48;;;13.07;;
84883;SDS011;75145;49.188;8.122;2024-03-08T06:08:37;27.90;;;13.13;;
84883;SDS011;75145;49.188;8.122;2024-03-08T06:11:02;27.00;;;13.73;;
84883;SDS011;75145;49.188;8.122;2024-03-08T06:13:28;28.40;;;13.63;;
84883;SDS011;75145;49.188;8.122;2024-03-08T06:15:56;30.33;;;13.50;;
84883;SDS011;75145;49.188;8.122;2024-03-08T06:18:21;35.28;;;13.55;;
84883;SDS011;75145;49.188;8.122;2024-03-08T06:20:47;31.48;;;13.00;;
84883;SDS011;75145;49.188;8.122;2024-03-08T06:23:12;26.42;;;13.35;;
84883;SDS011;75145;49.188;8.122;2024-03-08T06:25:39;27.83;;;12.50;;
84883;SDS011;75145;49.188;8.122;2024-03-08T06:28:04;26.43;;;12.20;;
84883;SDS011;75145;49.188;8.122;2024-03-08T06:30:30;26.90;;;12.68;;
84883;SDS011;75145;49.188;8.122;2024-03-08T06:32:56;29.48;;;12.65;;
84883;SDS011;75145;49.188;8.122;2024-03-08T06:35:21;26.13;;;11.93;;
84883;SDS011;75145;49.188;8.122;2024-03-08T06:37:47;27.23;;;12.45;;
84883;SDS011;75145;49.188;8.122;2024-03-08T06:40:13;23.67;;;12.48;;
84883;SDS011;75145;49.188;8.122;2024-03-08T06:42:39;27.05;;;12.10;;
84883;SDS011;75145;49.188;8.122;2024-03-08T06:45:05;29.55;;;12.18;;
84883;SDS011;75145;49.188;8.122;2024-03-08T06:47:31;24.83;;;12.63;;
84883;SDS011;75145;49.188;8.122;2024-03-08T06:49:58;22.65;;;10.95;;
84883;SDS011;75145;49.188;8.122;2024-03-08T06:52:23;21.73;;;11.98;;
84883;SDS011;75145;49.188;8.122;2024-03-08T06:54:49;26.08;;;12.10;;
84883;SDS011;75145;49.188;8.122;2024-03-08T06:57:14;21.70;;;12.90;;
84883;SDS011;75145;49.188;8.122;2024-03-08T06:59:41;26.92;;;12.63;;
84883;SDS011;75145;49.188;8.122;2024-03-08T07:02:07;23.95;;;12.27;;
84883;SDS011;75145;49.188;8.122;2024-03-08T07:04:37;23.58;;;12.05;;
84883;SDS011;75145;49.188;8.122;2024-03-08T07:07:05;24.92;;;12.20;;
84883;SDS011;75145;49.188;8.122;2024-03-08T07:09:34;22.45;;;12.25;;
84883;SDS011;75145;49.188;8.122;2024-03-08T07:12:02;24.55;;;12.82;;
84883;SDS011;75145;49.188;8.122;2024-03-08T07:14:27;22.38;;;11.75;;
84883;SDS011;75145;49.188;8.122;2024-03-08T07:16:53;20.95;;;11.00;;
84883;SDS011;75145;49.188;8.122;2024-03-08T07:19:19;19.50;;;11.73;;
84883;SDS011;75145;49.188;8.122;2024-03-08T07:21:44;21.70;;;11.73;;
84883;SDS011;75145;49.188;8.122;2024-03-08T07:24:10;22.40;;;12.18;;
84883;SDS011;75145;49.188;8.122;2024-03-08T07:26:58;23.42;;;12.27;;
84883;SDS011;75145;49.188;8.122;2024-03-08T07:29:24;23.88;;;11.32;;
84883;SDS011;75145;49.188;8.122;2024-03-08T07:31:49;25.45;;;12.73;;
84883;SDS011;75145;49.188;8.122;2024-03-08T07:34:38;22.67;;;12.50;;
84883;SDS011;75145;49.188;8.122;2024-03-08T07:37:05;22.77;;;11.52;;
84883;SDS011;75145;49.188;8.122;2024-03-08T07:39:31;23.15;;;11.77;;
84883;SDS011;75145;49.188;8.122;2024-03-08T07:41:56;20.42;;;11.82;;
84883;SDS011;75145;49.188;8.122;2024-03-08T07:44:22;21.13;;;12.00;;
84883;SDS011;75145;49.188;8.122;2024-03-08T07:46:48;19.83;;;11.35;;
84883;SDS011;75145;49.188;8.122;2024-03-08T07:49:14;22.67;;;11.05;;
84883;SDS011;75145;49.188;8.122;2024-03-08T07:51:40;22.10;;;11.80;;
84883;SDS011;75145;49.188;8.122;2024-03-08T07:54:05;25.02;;;12.52;;
84883;SDS011;75145;49.188;8.122;2024-03-08T07:56:30;19.17;;;11.00;;
84883;SDS011;75145;49.188;8.122;2024-03-08T07:58:56;21.20;;;12.02;;
84883;SDS011;75145;49.188;8.122;2024-03-08T08:01:21;21.30;;;11.98;;
84883;SDS011;75145;49.188;8.122;2024-03-08T08:03:47;18.60;;;11.15;;
84883;SDS011;75145;49.188;8.122;2024-03-08T08:06:14;20.48;;;11.65;;
84883;SDS011;75145;49.188;8.122;2024-03-08T08:08:43;21.30;;;11.52;;
84883;SDS011;75145;49.188;8.122;2024-03-08T08:11:09;22.42;;;12.43;;
84883;SDS011;75145;49.188;8.122;2024-03-08T08:13:36;19.42;;;11.25;;
84883;SDS011;75145;49.188;8.122;2024-03-08T08:16:05;19.27;;;11.60;;
84883;SDS011;75145;49.188;8.122;2024-03-08T08:21:00;21.98;;;11.75;;
84883;SDS011;75145;49.188;8.122;2024-03-08T08:23:25;19.90;;;11.37;;
84883;SDS011;75145;49.188;8.122;2024-03-08T08:25:51;20.08;;;10.82;;
84883;SDS011;75145;49.188;8.122;2024-03-08T08:28:16;20.10;;;11.30;;
84883;SDS011;75145;49.188;8.122;2024-03-08T08:30:45;19.75;;;11.60;;
84883;SDS011;75145;49.188;8.122;2024-03-08T08:33:11;20.58;;;11.02;;
84883;SDS011;75145;49.188;8.122;2024-03-08T08:35:36;21.88;;;11.27;;
84883;SDS011;75145;49.188;8.122;2024-03-08T08:38:03;19.27;;;11.32;;
84883;SDS011;75145;49.188;8.122;2024-03-08T08:40:29;21.08;;;11.65;;
84883;SDS011;75145;49.188;8.122;2024-03-08T08:42:56;18.98;;;11.63;;
84883;SDS011;75145;49.188;8.122;2024-03-08T08:45:22;17.85;;;9.98;;
84883;SDS011;75145;49.188;8.122;2024-03-08T08:47:48;21.00;;;11.95;;
84883;SDS011;75145;49.188;8.122;2024-03-08T08:50:14;20.17;;;11.80;;
84883;SDS011;75145;49.188;8.122;2024-03-08T08:52:41;21.25;;;11.30;;
84883;SDS011;75145;49.188;8.122;2024-03-08T08:55:09;18.27;;;10.57;;
84883;SDS011;75145;49.188;8.122;2024-03-08T08:57:39;23.73;;;10.95;;
84883;SDS011;75145;49.188;8.122;2024-03-08T09:00:05;17.35;;;10.23;;
84883;SDS011;75145;49.188;8.122;2024-03-08T09:02:32;20.80;;;10.80;;
84883;SDS011;75145;49.188;8.122;2024-03-08T09:04:58;21.90;;;12.27;;
84883;SDS011;75145;49.188;8.122;2024-03-08T09:07:23;24.17;;;13.00;;
84883;SDS011;75145;49.188;8.122;2024-03-08T09:09:49;19.38;;;10.18;;
84883;SDS011;75145;49.188;8.122;2024-03-08T09:12:14;14.93;;;7.78;;
84883;SDS011;75145;49.188;8.122;2024-03-08T09:14:40;20.10;;;10.38;;
84883;SDS011;75145;49.188;8.122;2024-03-08T09:17:06;19.90;;;10.25;;
84883;SDS011;75145;49.188;8.122;2024-03-08T09:19:33;24.00;;;11.63;;
84883;SDS011;75145;49.188;8.122;2024-03-08T09:21:59;16.92;;;6.97;;
84883;SDS011;75145;49.188;8.122;2024-03-08T09:24:24;25.20;;;12.02;;
84883;SDS011;75145;49.188;8.122;2024-03-08T09:26:50;22.48;;;11.93;;
84883;SDS011;75145;49.188;8.122;2024-03-08T09:29:17;23.23;;;12.05;;
84883;SDS011;75145;49.188;8.122;2024-03-08T09:31:42;20.70;;;11.15;;
84883;SDS011;75145;49.188;8.122;2024-03-08T09:34:07;26.08;;;13.15;;
84883;SDS011;75145;49.188;8.122;2024-03-08T09:36:34;21.98;;;11.15;;
84883;SDS011;75145;49.188;8.122;2024-03-08T09:38:59;21.65;;;11.85;;
84883;SDS011;75145;49.188;8.122;2024-03-08T09:41:25;28.98;;;11.40;;
84883;SDS011;75145;49.188;8.122;2024-03-08T09:43:51;21.63;;;11.63;;
84883;SDS011;75145;49.188;8.122;2024-03-08T09:46:16;20.95;;;11.88;;
84883;SDS011;75145;49.188;8.122;2024-03-08T09:48:45;24.45;;;12.73;;
84883;SDS011;75145;49.188;8.122;2024-03-08T09:51:11;22.65;;;10.95;;
84883;SDS011;75145;49.188;8.122;2024-03-08T09:53:40;25.65;;;13.23;;
84883;SDS011;75145;49.188;8.122;2024-03-08T09:56:07;21.85;;;11.07;;
84883;SDS011;75145;49.188;8.122;2024-03-08T09:58:33;25.27;;;12.65;;
84883;SDS011;75145;49.188;8.122;2024-03-08T10:00:59;24.50;;;12.40;;
84883;SDS011;75145;49.188;8.122;2024-03-08T10:03:29;24.33;;;12.07;;
84883;SDS011;75145;49.188;8.122;2024-03-08T10:05:58;23.08;;;11.43;;
84883;SDS011;75145;49.188;8.122;2024-03-08T10:08:26;22.45;;;11.60;;
84883;SDS011;75145;49.188;8.122;2024-03-08T10:10:52;22.33;;;11.30;;
84883;SDS011;75145;49.188;8.122;2024-03-08T10:13:17;20.98;;;10.73;;
84883;SDS011;75145;49.188;8.122;2024-03-08T10:15:45;21.48;;;11.95;;
84883;SDS011;75145;49.188;8.122;2024-03-08T10:18:10;26.00;;;12.75;;
84883;SDS011;75145;49.188;8.122;2024-03-08T10:20:35;22.05;;;11.48;;
84883;SDS011;75145;49.188;8.122;2024-03-08T10:23:02;21.25;;;11.90;;
84883;SDS011;75145;49.188;8.122;2024-03-08T10:25:29;22.95;;;12.50;;
84883;SDS011;75145;49.188;8.122;2024-03-08T10:27:55;22.08;;;11.73;;
84883;SDS011;75145;49.188;8.122;2024-03-08T10:30:21;21.10;;;10.90;;
84883;SDS011;75145;49.188;8.122;2024-03-08T10:32:47;23.05;;;11.63;;
84883;SDS011;75145;49.188;8.122;2024-03-08T10:35:13;20.85;;;10.93;;
84883;SDS011;75145;49.188;8.122;2024-03-08T10:37:44;22.38;;;11.60;;
84883;SDS011;75145;49.188;8.122;2024-03-08T10:40:17;25.27;;;12.38;;
84883;SDS011;75145;49.188;8.122;2024-03-08T10:50:56;22.20;;;11.65;;
84883;SDS011;75145;49.188;8.122;2024-03-08T10:53:27;20.35;;;11.65;;
84883;SDS011;75145;49.188;8.122;2024-03-08T10:55:54;22.80;;;11.27;;
84883;SDS011;75145;49.188;8.122;2024-03-08T10:58:22;21.25;;;10.93;;
84883;SDS011;75145;49.188;8.122;2024-03-08T11:00:51;21.40;;;11.07;;
84883;SDS011;75145;49.188;8.122;2024-03-08T11:06:07;21.20;;;11.13;;
84883;SDS011;75145;49.188;8.122;2024-03-08T11:08:35;23.63;;;11.82;;
84883;SDS011;75145;49.188;8.122;2024-03-08T11:11:01;21.65;;;11.18;;
84883;SDS011;75145;49.188;8.122;2024-03-08T11:13:33;22.17;;;11.80;;
84883;SDS011;75145;49.188;8.122;2024-03-08T11:16:48;18.52;;;10.30;;
84883;SDS011;75145;49.188;8.122;2024-03-08T11:19:00;21.00;;;11.65;;
84883;SDS011;75145;49.188;8.122;2024-03-08T11:21:30;23.15;;;12.93;;
84883;SDS011;75145;49.188;8.122;2024-03-08T11:23:59;18.67;;;9.63;;
84883;SDS011;75145;49.188;8.122;2024-03-08T11:26:25;22.50;;;11.10;;
84883;SDS011;75145;49.188;8.122;2024-03-08T11:28:51;19.50;;;9.65;;
84883;SDS011;75145;49.188;8.122;2024-03-08T11:33:46;19.85;;;10.52;;
84883;SDS011;75145;49.188;8.122;2024-03-08T11:36:14;21.63;;;11.02;;
84883;SDS011;75145;49.188;8.122;2024-03-08T11:38:47;18.27;;;10.02;;
84883;SDS011;75145;49.188;8.122;2024-03-08T11:41:18;15.43;;;8.23;;
84883;SDS011;75145;49.188;8.122;2024-03-08T11:43:45;19.30;;;8.73;;
84883;SDS011;75145;49.188;8.122;2024-03-08T11:46:11;22.75;;;11.45;;
84883;SDS011;75145;49.188;8.122;2024-03-08T11:48:41;18.55;;;10.23;;
84883;SDS011;75145;49.188;8.122;2024-03-08T11:51:07;21.90;;;11.50;;
84883;SDS011;75145;49.188;8.122;2024-03-08T11:53:33;20.02;;;10.73;;
84883;SDS011;75145;49.188;8.122;2024-03-08T11:56:08;18.40;;;8.40;;
84883;SDS011;75145;49.188;8.122;2024-03-08T11:58:35;24.77;;;11.95;;
84883;SDS011;75145;49.188;8.122;2024-03-08T12:01:07;21.40;;;10.93;;
84883;SDS011;75145;49.188;8.122;2024-03-08T12:03:40;22.17;;;11.50;;
84883;SDS011;75145;49.188;8.122;2024-03-08T12:06:07;15.65;;;7.72;;
84883;SDS011;75145;49.188;8.122;2024-03-08T12:08:36;18.17;;;9.77;;
84883;SDS011;75145;49.188;8.122;2024-03-08T12:11:03;17.67;;;9.93;;
84883;SDS011;75145;49.188;8.122;2024-03-08T12:13:29;21.95;;;10.18;;
84883;SDS011;75145;49.188;8.122;2024-03-08T12:16:05;23.88;;;9.52;;
84883;SDS011;75145;49.188;8.122;2024-03-08T12:18:34;16.35;;;8.73;;
84883;SDS011;75145;49.188;8.122;2024-03-08T12:23:47;18.23;;;10.55;;
84883;SDS011;75145;49.188;8.122;2024-03-08T12:26:23;17.17;;;10.30;;
84883;SDS011;75145;49.188;8.122;2024-03-08T12:28:50;19.20;;;9.80;;
84883;SDS011;75145;49.188;8.122;2024-03-08T12:31:16;20.20;;;11.20;;
84883;SDS011;75145;49.188;8.122;2024-03-08T12:36:14;21.50;;;10.13;;
84883;SDS011;75145;49.188;8.122;2024-03-08T12:38:43;16.20;;;9.20;;
84883;SDS011;75145;49.188;8.122;2024-03-08T12:41:13;18.42;;;10.15;;
84883;SDS011;75145;49.188;8.122;2024-03-08T12:43:38;17.58;;;9.20;;
84883;SDS011;75145;49.188;8.122;2024-03-08T12:46:04;16.52;;;9.50;;
84883;SDS011;75145;49.188;8.122;2024-03-08T12:48:33;13.77;;;8.48;;
84883;SDS011;75145;49.188;8.122;2024-03-08T12:51:05;14.43;;;8.68;;
84883;SDS011;75145;49.188;8.122;2024-03-08T12:53:32;18.38;;;10.15;;
84883;SDS011;75145;49.188;8.122;2024-03-08T12:55:58;20.00;;;10.15;;
84883;SDS011;75145;49.188;8.122;2024-03-08T12:58:24;19.95;;;10.60;;
84883;SDS011;75145;49.188;8.122;2024-03-08T13:00:56;18.52;;;10.38;;
84883;SDS011;75145;49.188;8.122;2024-03-08T13:03:21;23.33;;;11.10;;
84883;SDS011;75145;49.188;8.122;2024-03-08T13:05:48;19.27;;;10.10;;
84883;SDS011;75145;49.188;8.122;2024-03-08T13:08:14;16.80;;;10.10;;
84883;SDS011;75145;49.188;8.122;2024-03-08T13:10:41;19.52;;;11.15;;
84883;SDS011;75145;49.188;8.122;2024-03-08T13:13:08;17.25;;;9.05;;
84883;SDS011;75145;49.188;8.122;2024-03-08T13:15:35;18.23;;;10.57;;
84883;SDS011;75145;49.188;8.122;2024-03-08T13:18:00;17.48;;;9.63;;
84883;SDS011;75145;49.188;8.122;2024-03-08T13:20:26;16.02;;;9.52;;
84883;SDS011;75145;49.188;8.122;2024-03-08T13:22:53;23.20;;;10.82;;
84883;SDS011;75145;49.188;8.122;2024-03-08T13:25:18;17.15;;;8.38;;
84883;SDS011;75145;49.188;8.122;2024-03-08T13:27:45;16.80;;;8.73;;
84883;SDS011;75145;49.188;8.122;2024-03-08T13:30:11;14.88;;;9.07;;
84883;SDS011;75145;49.188;8.122;2024-03-08T13:32:43;15.75;;;8.75;;
84883;SDS011;75145;49.188;8.122;2024-03-08T13:35:09;18.25;;;10.82;;
84883;SDS011;75145;49.188;8.122;2024-03-08T13:37:41;17.42;;;9.88;;
84883;SDS011;75145;49.188;8.122;2024-03-08T13:40:08;15.85;;;7.45;;
84883;SDS011;75145;49.188;8.122;2024-03-08T13:42:41;14.68;;;8.18;;
84883;SDS011;75145;49.188;8.122;2024-03-08T13:45:08;17.80;;;10.32;;
84883;SDS011;75145;49.188;8.122;2024-03-08T13:47:39;19.85;;;11.00;;
84883;SDS011;75145;49.188;8.122;2024-03-08T13:50:08;17.95;;;9.43;;
84883;SDS011;75145;49.188;8.122;2024-03-08T13:52:38;18.65;;;10.63;;
84883;SDS011;75145;49.188;8.122;2024-03-08T13:55:05;17.77;;;10.13;;
84883;SDS011;75145;49.188;8.122;2024-03-08T13:57:31;19.77;;;11.15;;
84883;SDS011;75145;49.188;8.122;2024-03-08T13:59:57;19.42;;;10.13;;
84883;SDS011;75145;49.188;8.122;2024-03-08T14:02:23;18.77;;;10.35;;
84883;SDS011;75145;49.188;8.122;2024-03-08T14:04:53;21.73;;;12.85;;
84883;SDS011;75145;49.188;8.122;2024-03-08T14:07:19;18.30;;;10.15;;
84883;SDS011;75145;49.188;8.122;2024-03-08T14:09:45;16.63;;;10.27;;
84883;SDS011;75145;49.188;8.122;2024-03-08T14:12:10;17.03;;;10.23;;
84883;SDS011;75145;49.188;8.122;2024-03-08T14:14:36;18.47;;;10.63;;
84883;SDS011;75145;49.188;8.122;2024-03-08T14:17:02;18.35;;;11.30;;
84883;SDS011;75145;49.188;8.122;2024-03-08T14:19:28;20.35;;;12.55;;
84883;SDS011;75145;49.188;8.122;2024-03-08T14:21:55;20.08;;;11.52;;
84883;SDS011;75145;49.188;8.122;2024-03-08T14:24:21;23.88;;;11.82;;
84883;SDS011;75145;49.188;8.122;2024-03-08T14:26:47;19.40;;;11.38;;
84883;SDS011;75145;49.188;8.122;2024-03-08T14:29:14;19.23;;;10.13;;
84883;SDS011;75145;49.188;8.122;2024-03-08T14:31:39;19.88;;;11.68;;
84883;SDS011;75145;49.188;8.122;2024-03-08T14:34:06;23.23;;;10.85;;
84883;SDS011;75145;49.188;8.122;2024-03-08T14:36:32;19.70;;;11.60;;
84883;SDS011;75145;49.188;8.122;2024-03-08T14:38:57;20.70;;;11.45;;
84883;SDS011;75145;49.188;8.122;2024-03-08T14:41:23;19.50;;;11.82;;
84883;SDS011;75145;49.188;8.122;2024-03-08T14:43:48;20.90;;;11.23;;